Terminal Aerodrome Forecast
Issued by NWS

Home | Current Version | Previous Version | Text Only | Print | Product List | Glossary On
Versions: 1 2 3 4 5 6 7 8 9 10 11 12 13 14 15 16 17 18 19 20 21 22 23 24 25 26 27
000
FTUS41 KOKX 261100
TAFHPN
TAF
KHPN 261120Z 2612/2712 05008KT P6SM BKN030
      TEMPO 2613/2616 3SM -SN BR BKN015
     FM261600 05010G17KT 1SM -SN BR BKN007
     FM261900 05012G20KT 3/4SM -SN BR BKN007
     FM262300 03017G26KT 1/2SM SN FZFG VV005
     FM270400 01025G34KT 1/4SM +SN FZFG VV003
      AMD NOT SKED=

USA.gov is the U.S. government's official web portal to all federal, state and local government web resources and services.